createdAt,value
2022-11-17T00:01:46.017Z,39.07
2022-11-17T00:04:14.568Z,36.80
2022-11-17T00:06:43.311Z,36.77
2022-11-17T00:09:17.639Z,40.93
2022-11-17T00:12:03.988Z,42.17
2022-11-17T00:14:36.885Z,38.93
2022-11-17T00:17:09.024Z,35.37
2022-11-17T00:19:51.560Z,36.97
2022-11-17T00:22:20.542Z,33.47
2022-11-17T00:24:49.599Z,33.50
2022-11-17T00:27:18.887Z,29.90
2022-11-17T00:29:47.612Z,29.37
2022-11-17T00:32:37.531Z,28.57
2022-11-17T00:35:07.127Z,26.27
2022-11-17T00:37:38.982Z,25.83
2022-11-17T00:40:08.590Z,27.47
2022-11-17T00:42:37.208Z,24.90
2022-11-17T00:45:06.543Z,25.40
2022-11-17T00:47:38.914Z,25.90
2022-11-17T00:50:08.346Z,24.60
2022-11-17T00:52:37.031Z,26.17
2022-11-17T00:55:06.554Z,27.17
2022-11-17T00:57:35.393Z,29.03
2022-11-17T01:00:04.551Z,34.63
2022-11-17T01:02:33.290Z,34.77
2022-11-17T01:05:03.534Z,34.83
2022-11-17T01:07:32.304Z,40.83
2022-11-17T01:10:01.292Z,36.63
2022-11-17T01:12:30.026Z,37.17
2022-11-17T01:14:58.677Z,38.17
2022-11-17T01:17:27.339Z,38.00
2022-11-17T01:19:56.205Z,41.27
2022-11-17T01:22:26.360Z,39.87
2022-11-17T01:24:54.957Z,40.80
2022-11-17T01:27:23.521Z,40.73
2022-11-17T01:29:52.178Z,38.77
2022-11-17T01:32:20.774Z,37.43
2022-11-17T01:34:49.280Z,39.90
2022-11-17T01:37:20.410Z,37.60
2022-11-17T01:39:51.147Z,37.90
2022-11-17T01:42:23.180Z,39.70
2022-11-17T01:45:01.686Z,41.93
2022-11-17T01:47:36.884Z,42.90
2022-11-17T01:50:10.887Z,37.43
2022-11-17T01:52:41.206Z,40.10
2022-11-17T01:55:13.333Z,39.23
2022-11-17T01:57:46.959Z,37.57
2022-11-17T02:00:16.745Z,34.63
2022-11-17T02:02:46.527Z,36.47
2022-11-17T02:05:28.950Z,37.93
2022-11-17T02:08:00.927Z,33.33
2022-11-17T02:10:33.263Z,35.00
2022-11-17T02:13:02.838Z,37.07
2022-11-17T02:15:32.069Z,31.17
2022-11-17T02:18:01.183Z,36.23
2022-11-17T02:20:44.502Z,32.33
2022-11-17T02:23:41.228Z,34.73
2022-11-17T02:26:42.391Z,32.10
2022-11-17T02:29:17.620Z,33.30
2022-11-17T02:31:55.003Z,35.80
2022-11-17T02:34:39.584Z,32.70
2022-11-17T02:37:16.055Z,29.50
2022-11-17T02:39:53.055Z,35.10
2022-11-17T02:42:50.080Z,31.87
2022-11-17T02:45:24.620Z,31.60
2022-11-17T02:47:55.947Z,31.83
2022-11-17T02:50:28.384Z,29.67
2022-11-17T02:52:57.924Z,29.47
2022-11-17T02:55:27.829Z,29.30
2022-11-17T02:57:56.495Z,28.13
2022-11-17T03:00:28.347Z,30.53
2022-11-17T03:03:21.043Z,30.13
2022-11-17T03:06:00.127Z,32.20
2022-11-17T03:08:37.376Z,26.30
2022-11-17T03:11:08.811Z,29.27
2022-11-17T03:13:47.547Z,26.63
2022-11-17T03:16:26.790Z,29.53
2022-11-17T03:19:06.048Z,29.97
2022-11-17T03:21:41.603Z,27.17
2022-11-17T03:24:15.481Z,29.67
2022-11-17T03:26:49.885Z,28.57
2022-11-17T03:29:23.112Z,25.30
2022-11-17T03:31:59.143Z,25.87
2022-11-17T03:34:31.462Z,26.87
2022-11-17T03:37:06.330Z,27.53
2022-11-17T03:39:37.601Z,27.43
2022-11-17T03:42:11.543Z,25.87
2022-11-17T03:44:44.346Z,24.73
2022-11-17T03:47:16.714Z,26.50
2022-11-17T03:49:51.712Z,26.73
2022-11-17T03:52:21.549Z,26.13
2022-11-17T03:54:50.464Z,23.57
2022-11-17T03:57:27.745Z,24.53
2022-11-17T04:00:01.912Z,24.50
2022-11-17T04:02:44.618Z,22.43
2022-11-17T04:05:15.738Z,23.03
2022-11-17T04:07:45.835Z,25.90
2022-11-17T04:10:16.678Z,22.30
2022-11-17T04:13:02.764Z,24.00
2022-11-17T04:15:49.420Z,21.47
2022-11-17T04:18:20.300Z,24.23
2022-11-17T04:20:52.524Z,25.00
2022-11-17T04:23:21.282Z,21.53
2022-11-17T04:26:08.968Z,23.40
2022-11-17T04:28:39.936Z,23.67
2022-11-17T04:31:11.751Z,22.93
2022-11-17T04:33:43.498Z,21.23
2022-11-17T04:36:13.979Z,21.57
2022-11-17T04:38:43.833Z,21.70
2022-11-17T04:41:32.207Z,24.73
2022-11-17T04:44:01.569Z,20.90
2022-11-17T04:46:33.009Z,22.33
2022-11-17T04:49:04.017Z,19.77
2022-11-17T04:51:33.621Z,21.33
2022-11-17T04:54:03.104Z,23.40
2022-11-17T04:56:32.022Z,20.33
2022-11-17T04:59:00.839Z,22.23
2022-11-17T05:01:30.262Z,22.50
2022-11-17T05:04:00.584Z,21.13
2022-11-17T05:06:33.473Z,20.83
2022-11-17T05:09:05.170Z,22.07
2022-11-17T05:11:51.343Z,21.40
2022-11-17T05:14:21.903Z,21.47
2022-11-17T05:17:11.294Z,23.10
2022-11-17T05:19:42.235Z,19.20
2022-11-17T05:22:31.209Z,19.63
2022-11-17T05:25:00.184Z,20.23
2022-11-17T05:27:29.025Z,19.87
2022-11-17T05:29:57.904Z,21.80
2022-11-17T05:32:27.075Z,22.10
2022-11-17T05:34:55.896Z,21.23
2022-11-17T05:37:25.957Z,18.30
2022-11-17T05:39:54.726Z,21.07
2022-11-17T05:42:23.261Z,18.17
2022-11-17T05:44:52.168Z,17.20
2022-11-17T05:47:20.737Z,17.20
2022-11-17T05:49:49.455Z,16.20
2022-11-17T05:52:18.187Z,17.17
2022-11-17T05:54:48.394Z,15.27
2022-11-17T05:57:23.625Z,17.17
2022-11-17T05:59:59.751Z,15.23
2022-11-17T06:02:32.775Z,16.27
2022-11-17T06:05:01.672Z,19.47
2022-11-17T06:07:30.409Z,17.93
2022-11-17T06:10:00.671Z,15.73
2022-11-17T06:12:29.292Z,16.67
2022-11-17T06:14:58.013Z,15.60
2022-11-17T06:17:32.211Z,14.97
2022-11-17T06:20:06.289Z,17.83
2022-11-17T06:22:35.757Z,17.93
2022-11-17T06:25:09.799Z,17.63
2022-11-17T06:27:40.397Z,15.53
2022-11-17T06:30:09.921Z,19.17
2022-11-17T06:32:40.387Z,19.47
2022-11-17T06:35:11.467Z,17.80
2022-11-17T06:37:40.271Z,20.23
2022-11-17T06:40:13.628Z,23.83
2022-11-17T06:42:56.104Z,23.73
2022-11-17T06:45:25.007Z,23.43
2022-11-17T06:47:54.937Z,26.80
2022-11-17T06:50:23.826Z,30.00
2022-11-17T06:52:52.702Z,23.70
2022-11-17T06:55:23.220Z,23.57
2022-11-17T06:57:53.591Z,26.07
2022-11-17T07:00:22.882Z,24.13
2022-11-17T07:02:51.615Z,30.23
2022-11-17T07:05:20.439Z,28.60
2022-11-17T07:07:49.138Z,27.93
2022-11-17T07:10:18.591Z,26.37
2022-11-17T07:12:48.974Z,28.70
2022-11-17T07:15:17.934Z,28.60
2022-11-17T07:17:47.014Z,28.63
2022-11-17T07:20:16.473Z,31.53
2022-11-17T07:22:45.515Z,29.17
2022-11-17T07:25:19.615Z,35.87
2022-11-17T07:27:59.458Z,36.40
2022-11-17T07:30:28.514Z,35.80
2022-11-17T07:32:59.176Z,34.60
2022-11-17T07:35:28.027Z,34.67
2022-11-17T07:37:59.581Z,33.47
2022-11-17T07:40:28.925Z,37.80
2022-11-17T07:42:59.209Z,35.93
2022-11-17T07:45:31.850Z,33.77
2022-11-17T07:48:03.439Z,38.53
2022-11-17T07:50:32.590Z,36.87
2022-11-17T07:53:01.549Z,33.50
2022-11-17T07:55:30.242Z,31.83
2022-11-17T07:58:01.789Z,31.50
2022-11-17T08:00:33.796Z,33.70
2022-11-17T08:03:04.293Z,27.43
2022-11-17T08:05:37.039Z,27.23
2022-11-17T08:08:13.487Z,28.80
2022-11-17T08:10:43.298Z,22.60
2022-11-17T08:13:15.565Z,24.27
2022-11-17T08:15:44.438Z,29.30
2022-11-17T08:18:13.323Z,27.23
2022-11-17T08:20:42.063Z,28.63
2022-11-17T08:23:10.792Z,29.60
2022-11-17T08:25:39.465Z,24.37
2022-11-17T08:28:08.071Z,20.87
2022-11-17T08:30:38.351Z,22.07
2022-11-17T08:33:07.111Z,21.87
2022-11-17T08:35:37.566Z,21.93
2022-11-17T08:38:07.048Z,20.40
2022-11-17T08:40:35.810Z,15.93
2022-11-17T08:43:05.289Z,19.17
2022-11-17T08:45:34.168Z,17.33
2022-11-17T08:48:04.718Z,19.10
2022-11-17T08:50:33.443Z,16.67
2022-11-17T08:53:02.211Z,19.00
2022-11-17T08:55:31.012Z,18.83
2022-11-17T08:57:59.865Z,17.67
2022-11-17T09:00:28.712Z,17.10
2022-11-17T09:02:57.359Z,16.37
2022-11-17T09:05:28.508Z,19.67
2022-11-17T09:08:06.055Z,19.23
2022-11-17T09:10:49.569Z,16.43
2022-11-17T09:13:18.823Z,16.00
2022-11-17T09:15:47.552Z,13.77
2022-11-17T09:18:16.595Z,14.40
2022-11-17T09:20:47.024Z,14.50
2022-11-17T09:23:15.853Z,12.57
2022-11-17T09:25:44.606Z,13.60
2022-11-17T09:28:13.337Z,13.37
2022-11-17T09:30:41.973Z,14.57
2022-11-17T09:33:10.621Z,15.13
2022-11-17T09:35:39.499Z,11.40
2022-11-17T09:38:09.855Z,11.83
2022-11-17T09:40:41.730Z,11.83
2022-11-17T09:43:25.560Z,14.77
2022-11-17T09:45:56.418Z,13.00
2022-11-17T09:48:41.603Z,11.13
2022-11-17T09:51:16.131Z,12.43
2022-11-17T09:53:53.691Z,11.00
2022-11-17T09:56:23.145Z,10.70
2022-11-17T09:58:54.780Z,12.20
2022-11-17T10:01:24.020Z,10.07
2022-11-17T10:03:53.777Z,8.60
2022-11-17T10:06:25.134Z,8.47
2022-11-17T10:09:02.907Z,8.63
2022-11-17T10:11:33.601Z,9.07
2022-11-17T10:14:14.521Z,9.70
2022-11-17T10:16:44.912Z,13.43
2022-11-17T10:19:19.167Z,9.40
2022-11-17T10:21:50.785Z,10.43
2022-11-17T10:24:38.148Z,7.40
2022-11-17T10:27:08.658Z,9.10
2022-11-17T10:29:37.442Z,9.03
2022-11-17T10:32:15.608Z,12.23
2022-11-17T10:34:44.336Z,7.13
2022-11-17T10:37:26.936Z,9.23
2022-11-17T10:40:20.704Z,7.20
2022-11-17T10:43:01.267Z,6.90
2022-11-17T10:45:30.290Z,6.50
2022-11-17T10:48:23.982Z,6.23
2022-11-17T10:50:54.829Z,7.60
2022-11-17T10:53:30.612Z,10.93
2022-11-17T10:56:05.866Z,7.30
2022-11-17T10:58:55.010Z,8.20
2022-11-17T11:01:31.087Z,7.73
2022-11-17T11:04:00.212Z,10.40
2022-11-17T11:06:30.959Z,7.40
2022-11-17T11:09:02.534Z,9.23
2022-11-17T11:11:43.687Z,6.87
2022-11-17T11:14:22.689Z,7.87
2022-11-17T11:16:52.179Z,7.47
2022-11-17T11:19:22.250Z,5.70
2022-11-17T11:22:19.846Z,6.57
2022-11-17T11:24:56.486Z,7.20
2022-11-17T11:27:53.629Z,6.40
2022-11-17T11:30:22.385Z,7.70
2022-11-17T11:33:04.507Z,5.97
2022-11-17T11:35:51.876Z,8.27
2022-11-17T11:38:39.060Z,7.43
2022-11-17T11:41:20.548Z,5.73
2022-11-17T11:44:03.968Z,6.43
2022-11-17T11:46:43.685Z,5.73
2022-11-17T11:49:19.750Z,5.90
2022-11-17T11:51:51.868Z,5.10
2022-11-17T11:54:32.949Z,4.30
2022-11-17T11:57:02.805Z,5.47
2022-11-17T11:59:41.072Z,5.93
2022-11-17T12:02:25.764Z,4.50
2022-11-17T12:05:01.541Z,3.83
2022-11-17T12:07:39.500Z,9.47
2022-11-17T12:10:17.236Z,4.50
2022-11-17T12:12:47.667Z,7.07
2022-11-17T12:15:36.820Z,5.03
2022-11-17T12:18:15.795Z,5.67
2022-11-17T12:21:04.057Z,6.68
2022-11-17T12:24:07.798Z,3.97
2022-11-17T12:26:36.952Z,4.80
2022-11-17T12:29:25.919Z,5.13
2022-11-17T12:31:57.201Z,4.83
2022-11-17T12:34:32.387Z,4.83
2022-11-17T12:37:29.321Z,5.63
2022-11-17T12:40:06.909Z,3.97
2022-11-17T12:42:36.377Z,4.83
2022-11-17T12:45:11.440Z,5.33
2022-11-17T12:47:48.115Z,4.10
2022-11-17T12:50:54.224Z,4.67
2022-11-17T12:53:50.385Z,5.93
2022-11-17T12:56:37.620Z,7.83
2022-11-17T12:59:31.501Z,6.80
2022-11-17T13:02:12.658Z,21.47
2022-11-17T13:04:49.639Z,6.13
2022-11-17T13:07:21.812Z,1.40
2022-11-17T13:09:57.113Z,2.80
2022-11-17T13:12:27.718Z,4.13
2022-11-17T13:14:57.630Z,2.97
2022-11-17T13:17:29.868Z,13.40
2022-11-17T13:20:06.004Z,4.53
2022-11-17T13:22:39.101Z,9.90
2022-11-17T13:25:23.844Z,6.77
2022-11-17T13:27:57.275Z,8.67
2022-11-17T13:30:30.714Z,4.27
2022-11-17T13:33:03.230Z,14.83
2022-11-17T13:35:35.742Z,9.73
2022-11-17T13:38:07.052Z,8.40
2022-11-17T13:40:37.364Z,4.07
2022-11-17T13:43:08.576Z,6.93
2022-11-17T13:45:38.042Z,5.50
2022-11-17T13:48:06.953Z,4.80
2022-11-17T13:50:39.811Z,9.00
2022-11-17T13:53:25.485Z,4.37
2022-11-17T13:55:55.164Z,3.00
2022-11-17T13:58:41.096Z,4.27
2022-11-17T14:01:13.445Z,4.57
2022-11-17T14:03:43.833Z,4.50
2022-11-17T14:06:15.910Z,1.80
2022-11-17T14:09:02.587Z,3.73
2022-11-17T14:11:31.746Z,2.50
2022-11-17T14:14:02.245Z,3.07
2022-11-17T14:16:37.759Z,4.40
2022-11-17T14:19:24.389Z,3.87
2022-11-17T14:22:03.384Z,4.67
2022-11-17T14:24:33.181Z,2.90
2022-11-17T14:27:02.299Z,4.40
2022-11-17T14:29:31.450Z,1.87
2022-11-17T14:32:00.531Z,4.83
2022-11-17T14:34:29.420Z,5.20
2022-11-17T14:36:58.570Z,2.93
2022-11-17T14:39:28.807Z,4.43
2022-11-17T14:41:58.055Z,3.53
2022-11-17T14:44:26.717Z,3.87
2022-11-17T14:46:55.363Z,3.50
2022-11-17T14:49:24.110Z,3.50
2022-11-17T14:51:55.560Z,5.07
2022-11-17T14:54:24.622Z,4.83
2022-11-17T14:56:54.882Z,3.23
2022-11-17T14:59:23.636Z,5.27
2022-11-17T15:01:52.424Z,4.50
2022-11-17T15:04:48.938Z,4.20
2022-11-17T15:07:10.038Z,5.50
2022-11-17T15:09:38.727Z,3.53
2022-11-17T15:12:09.683Z,2.73
2022-11-17T15:14:38.344Z,5.70
2022-11-17T15:17:11.265Z,6.20
2022-11-17T15:19:42.797Z,4.33
2022-11-17T15:22:11.641Z,4.23
2022-11-17T15:24:41.441Z,3.93
2022-11-17T15:27:12.486Z,3.80
2022-11-17T15:29:41.326Z,5.07
2022-11-17T15:32:10.844Z,5.53
2022-11-17T15:34:39.634Z,4.47
2022-11-17T15:37:08.681Z,4.67
2022-11-17T15:39:37.385Z,3.03
2022-11-17T15:42:06.169Z,5.03
2022-11-17T15:44:36.309Z,5.00
2022-11-17T15:47:05.061Z,2.80
2022-11-17T15:49:33.924Z,6.67
2022-11-17T15:52:02.611Z,4.70
2022-11-17T15:54:31.374Z,5.83
2022-11-17T15:57:01.492Z,3.50
2022-11-17T15:59:30.312Z,7.27
2022-11-17T16:02:00.680Z,7.47
2022-11-17T16:04:29.483Z,3.60
2022-11-17T16:06:58.724Z,5.70
2022-11-17T16:09:27.559Z,5.83
2022-11-17T16:11:56.535Z,22.40
2022-11-17T16:14:25.351Z,13.17
2022-11-17T16:16:54.016Z,10.93
2022-11-17T16:19:24.419Z,10.77
2022-11-17T16:21:53.171Z,7.57
2022-11-17T16:24:21.778Z,10.27
2022-11-17T16:26:50.876Z,9.83
2022-11-17T16:29:20.080Z,6.00
2022-11-17T16:31:48.790Z,7.63
2022-11-17T16:34:18.246Z,8.50
2022-11-17T16:36:48.422Z,8.10
2022-11-17T16:39:18.630Z,11.93
2022-11-17T16:41:50.204Z,9.83
2022-11-17T16:44:20.728Z,17.87
2022-11-17T16:46:51.053Z,12.53
2022-11-17T16:49:20.932Z,10.37
2022-11-17T16:51:52.773Z,12.07
2022-11-17T16:54:21.885Z,7.10
2022-11-17T16:56:50.820Z,9.00
2022-11-17T16:59:19.710Z,8.27
2022-11-17T17:01:48.907Z,8.13
2022-11-17T17:04:18.143Z,8.63
2022-11-17T17:06:47.186Z,8.83
2022-11-17T17:09:19.624Z,7.93
2022-11-17T17:11:52.104Z,9.23
2022-11-17T17:14:20.954Z,7.63
2022-11-17T17:16:49.911Z,11.63
2022-11-17T17:19:19.030Z,8.37
2022-11-17T17:21:48.444Z,7.90
2022-11-17T17:24:18.708Z,14.67
2022-11-17T17:26:47.535Z,13.17
2022-11-17T17:29:16.474Z,11.37
2022-11-17T17:31:46.305Z,14.07
2022-11-17T17:34:15.070Z,11.70
2022-11-17T17:36:44.063Z,10.30
2022-11-17T17:39:16.048Z,10.27
2022-11-17T17:41:46.766Z,11.87
2022-11-17T17:44:17.478Z,11.47
2022-11-17T17:46:47.462Z,11.07
2022-11-17T17:49:16.450Z,17.10
2022-11-17T17:51:47.315Z,19.90
2022-11-17T17:54:18.148Z,18.23
2022-11-17T17:56:49.160Z,20.20
2022-11-17T17:59:19.793Z,17.90
2022-11-17T18:01:49.846Z,17.43
2022-11-17T18:04:18.580Z,18.80
2022-11-17T18:06:48.584Z,20.00
2022-11-17T18:09:20.719Z,23.03
2022-11-17T18:11:51.690Z,20.93
2022-11-17T18:14:24.910Z,22.90
2022-11-17T18:16:54.458Z,17.43
2022-11-17T18:19:27.107Z,18.33
2022-11-17T18:22:00.153Z,16.40
2022-11-17T18:24:29.023Z,16.87
2022-11-17T18:26:59.260Z,21.03
2022-11-17T18:29:28.157Z,19.63
2022-11-17T18:31:56.900Z,17.43
2022-11-17T18:34:26.476Z,21.90
2022-11-17T18:36:56.893Z,20.20
2022-11-17T18:39:28.414Z,21.57
2022-11-17T18:41:59.439Z,17.10
2022-11-17T18:44:29.007Z,26.03
2022-11-17T18:47:02.555Z,20.40
2022-11-17T18:49:31.952Z,17.63
2022-11-17T18:52:00.685Z,18.20
2022-11-17T18:54:29.411Z,18.23
2022-11-17T18:57:00.177Z,21.70
2022-11-17T18:59:28.943Z,18.83
2022-11-17T19:01:57.804Z,18.27
2022-11-17T19:04:26.518Z,16.43
2022-11-17T19:06:55.414Z,22.20
2022-11-17T19:09:24.067Z,17.10
2022-11-17T19:11:53.762Z,17.00
2022-11-17T19:14:23.929Z,12.77
2022-11-17T19:16:52.608Z,17.77
2022-11-17T19:19:21.395Z,16.60
2022-11-17T19:21:50.125Z,17.23
2022-11-17T19:24:18.825Z,16.90
2022-11-17T19:26:47.578Z,26.27
2022-11-17T19:29:17.739Z,22.93
2022-11-17T19:31:48.948Z,21.40
2022-11-17T19:34:17.792Z,14.00
2022-11-17T19:36:46.624Z,15.77
2022-11-17T19:39:17.299Z,15.90
2022-11-17T19:41:47.827Z,18.53
2022-11-17T19:44:16.608Z,19.33
2022-11-17T19:46:45.365Z,23.93
2022-11-17T19:49:16.218Z,26.27
2022-11-17T19:51:45.222Z,22.33
2022-11-17T19:54:14.766Z,25.23
2022-11-17T19:56:43.659Z,30.43
2022-11-17T19:59:16.015Z,28.00
2022-11-17T20:01:45.313Z,23.50
2022-11-17T20:04:15.653Z,22.20
2022-11-17T20:06:44.332Z,29.50
2022-11-17T20:09:15.681Z,24.40
2022-11-17T20:11:45.096Z,34.00
2022-11-17T20:14:14.687Z,34.20
2022-11-17T20:16:43.454Z,30.87
2022-11-17T20:19:13.907Z,26.40
2022-11-17T20:21:44.474Z,26.63
2022-11-17T20:24:13.412Z,25.80
2022-11-17T20:26:43.220Z,26.87
2022-11-17T20:29:11.848Z,31.53
2022-11-17T20:31:40.497Z,26.30
2022-11-17T20:34:13.226Z,26.20
2022-11-17T20:36:43.558Z,23.83
2022-11-17T20:39:12.562Z,25.57
2022-11-17T20:41:41.262Z,30.30
2022-11-17T20:44:24.212Z,33.53
2022-11-17T20:46:55.042Z,25.07
2022-11-17T20:49:24.045Z,29.63
2022-11-17T20:51:54.279Z,28.53
2022-11-17T20:54:22.930Z,28.63
2022-11-17T20:56:51.621Z,28.73
2022-11-17T20:59:20.598Z,24.10
2022-11-17T21:01:50.747Z,28.47
2022-11-17T21:04:19.625Z,28.73
2022-11-17T21:06:48.511Z,26.50
2022-11-17T21:09:19.102Z,29.20
2022-11-17T21:12:00.476Z,27.03
2022-11-17T21:14:30.645Z,27.87
2022-11-17T21:17:00.700Z,37.53
2022-11-17T21:19:32.370Z,35.33
2022-11-17T21:22:02.878Z,28.10
2022-11-17T21:24:32.921Z,30.63
2022-11-17T21:27:01.594Z,31.87
2022-11-17T21:29:30.281Z,41.33
2022-11-17T21:31:58.975Z,38.53
2022-11-17T21:34:27.626Z,38.67
2022-11-17T21:36:56.288Z,38.00
2022-11-17T21:39:25.037Z,27.93
2022-11-17T21:41:55.258Z,26.80
2022-11-17T21:44:24.067Z,31.87
2022-11-17T21:46:52.800Z,35.73
2022-11-17T21:49:21.471Z,28.23
2022-11-17T21:51:50.217Z,25.37
2022-11-17T21:54:19.051Z,31.37
2022-11-17T21:56:47.785Z,28.83
2022-11-17T21:59:18.369Z,27.87
2022-11-17T22:01:47.268Z,24.17
2022-11-17T22:04:16.291Z,28.20
2022-11-17T22:06:45.346Z,27.13
2022-11-17T22:09:14.174Z,27.90
2022-11-17T22:11:43.121Z,28.33
2022-11-17T22:14:13.551Z,25.77
2022-11-17T22:16:45.516Z,24.93
2022-11-17T22:19:16.109Z,30.47
2022-11-17T22:21:46.327Z,25.20
2022-11-17T22:24:15.236Z,25.20
2022-11-17T22:26:45.233Z,25.30
2022-11-17T22:29:16.266Z,29.43
2022-11-17T22:31:47.126Z,36.67
2022-11-17T22:34:16.759Z,24.83
2022-11-17T22:36:45.511Z,29.73
2022-11-17T22:39:14.347Z,35.77
2022-11-17T22:41:43.302Z,25.20
2022-11-17T22:44:15.109Z,23.97
2022-11-17T22:46:46.003Z,21.20
2022-11-17T22:49:15.225Z,20.53
2022-11-17T22:52:01.677Z,17.80
2022-11-17T22:54:30.535Z,23.33
2022-11-17T22:56:59.424Z,22.93
2022-11-17T22:59:29.750Z,18.30
2022-11-17T23:02:00.072Z,24.97
2022-11-17T23:04:28.878Z,17.57
2022-11-17T23:06:57.730Z,17.63
2022-11-17T23:09:26.555Z,25.27
2022-11-17T23:11:55.318Z,28.33
2022-11-17T23:14:23.932Z,22.57
2022-11-17T23:16:52.712Z,25.80
2022-11-17T23:19:23.173Z,28.23
2022-11-17T23:21:51.896Z,31.57
2022-11-17T23:24:20.758Z,32.57
2022-11-17T23:26:49.521Z,35.93
2022-11-17T23:29:18.691Z,36.93
2022-11-17T23:31:47.572Z,33.67
2022-11-17T23:34:16.375Z,34.47
2022-11-17T23:36:46.492Z,28.73
2022-11-17T23:39:15.656Z,27.50
2022-11-17T23:41:44.483Z,31.03
2022-11-17T23:44:13.190Z,25.00
2022-11-17T23:46:43.015Z,27.47
2022-11-17T23:49:11.811Z,21.80
2022-11-17T23:51:40.569Z,32.67
2022-11-17T23:54:13.641Z,28.63
2022-11-17T23:56:43.282Z,28.67
2022-11-17T23:59:12.329Z,24.67
